sensor_id;sensor_type;location;lat;lon;timestamp;P1;durP1;ratioP1;P2;durP2;ratioP2
6336;SDS011;3201;49.962;11.618;2022-12-20T00:01:44;6.77;;;5.27;;
6336;SDS011;3201;49.962;11.618;2022-12-20T00:04:09;6.50;;;5.13;;
6336;SDS011;3201;49.962;11.618;2022-12-20T00:06:35;6.70;;;5.50;;
6336;SDS011;3201;49.962;11.618;2022-12-20T00:09:01;5.70;;;5.13;;
6336;SDS011;3201;49.962;11.618;2022-12-20T00:11:28;5.97;;;5.00;;
6336;SDS011;3201;49.962;11.618;2022-12-20T00:13:54;6.00;;;5.20;;
6336;SDS011;3201;49.962;11.618;2022-12-20T00:16:20;6.57;;;5.10;;
6336;SDS011;3201;49.962;11.618;2022-12-20T00:18:49;6.27;;;5.20;;
6336;SDS011;3201;49.962;11.618;2022-12-20T00:21:15;6.07;;;5.00;;
6336;SDS011;3201;49.962;11.618;2022-12-20T00:23:40;7.77;;;5.43;;
6336;SDS011;3201;49.962;11.618;2022-12-20T00:26:07;5.20;;;4.70;;
6336;SDS011;3201;49.962;11.618;2022-12-20T00:28:34;6.27;;;5.20;;
6336;SDS011;3201;49.962;11.618;2022-12-20T00:31:00;5.20;;;4.57;;
6336;SDS011;3201;49.962;11.618;2022-12-20T00:33:26;4.87;;;4.33;;
6336;SDS011;3201;49.962;11.618;2022-12-20T00:35:53;4.93;;;4.43;;
6336;SDS011;3201;49.962;11.618;2022-12-20T00:38:19;6.13;;;4.63;;
6336;SDS011;3201;49.962;11.618;2022-12-20T00:40:44;5.30;;;4.67;;
6336;SDS011;3201;49.962;11.618;2022-12-20T00:43:10;5.13;;;4.37;;
6336;SDS011;3201;49.962;11.618;2022-12-20T00:45:35;5.27;;;4.77;;
6336;SDS011;3201;49.962;11.618;2022-12-20T00:48:00;5.70;;;4.50;;
6336;SDS011;3201;49.962;11.618;2022-12-20T00:50:26;6.97;;;5.10;;
6336;SDS011;3201;49.962;11.618;2022-12-20T00:52:51;5.90;;;5.23;;
6336;SDS011;3201;49.962;11.618;2022-12-20T00:55:16;5.77;;;5.20;;
6336;SDS011;3201;49.962;11.618;2022-12-20T00:57:41;5.53;;;5.00;;
6336;SDS011;3201;49.962;11.618;2022-12-20T01:00:07;6.20;;;4.93;;
6336;SDS011;3201;49.962;11.618;2022-12-20T01:02:33;6.30;;;5.03;;
6336;SDS011;3201;49.962;11.618;2022-12-20T01:04:58;4.80;;;4.30;;
6336;SDS011;3201;49.962;11.618;2022-12-20T01:07:23;6.83;;;5.20;;
6336;SDS011;3201;49.962;11.618;2022-12-20T01:09:49;6.53;;;5.37;;
6336;SDS011;3201;49.962;11.618;2022-12-20T01:12:15;5.90;;;5.30;;
6336;SDS011;3201;49.962;11.618;2022-12-20T01:14:40;6.30;;;4.90;;
6336;SDS011;3201;49.962;11.618;2022-12-20T01:17:06;6.20;;;5.60;;
6336;SDS011;3201;49.962;11.618;2022-12-20T01:19:31;5.47;;;4.97;;
6336;SDS011;3201;49.962;11.618;2022-12-20T01:21:57;5.70;;;5.20;;
6336;SDS011;3201;49.962;11.618;2022-12-20T01:24:22;5.40;;;4.90;;
6336;SDS011;3201;49.962;11.618;2022-12-20T01:26:47;4.27;;;3.87;;
6336;SDS011;3201;49.962;11.618;2022-12-20T01:29:12;5.90;;;4.83;;
6336;SDS011;3201;49.962;11.618;2022-12-20T01:31:38;6.40;;;5.53;;
6336;SDS011;3201;49.962;11.618;2022-12-20T01:34:04;5.77;;;4.77;;
6336;SDS011;3201;49.962;11.618;2022-12-20T01:36:31;6.77;;;5.20;;
6336;SDS011;3201;49.962;11.618;2022-12-20T01:38:59;6.83;;;5.33;;
6336;SDS011;3201;49.962;11.618;2022-12-20T01:41:27;5.23;;;4.73;;
6336;SDS011;3201;49.962;11.618;2022-12-20T01:43:55;5.03;;;4.53;;
6336;SDS011;3201;49.962;11.618;2022-12-20T01:46:23;6.90;;;4.97;;
6336;SDS011;3201;49.962;11.618;2022-12-20T01:48:53;5.67;;;4.63;;
6336;SDS011;3201;49.962;11.618;2022-12-20T01:51:21;5.53;;;4.50;;
6336;SDS011;3201;49.962;11.618;2022-12-20T01:53:48;5.00;;;4.50;;
6336;SDS011;3201;49.962;11.618;2022-12-20T01:56:18;5.53;;;4.40;;
6336;SDS011;3201;49.962;11.618;2022-12-20T01:58:43;5.50;;;4.50;;
6336;SDS011;3201;49.962;11.618;2022-12-20T02:01:10;6.53;;;5.20;;
6336;SDS011;3201;49.962;11.618;2022-12-20T02:03:36;5.40;;;4.90;;
6336;SDS011;3201;49.962;11.618;2022-12-20T02:06:12;5.70;;;4.30;;
6336;SDS011;3201;49.962;11.618;2022-12-20T02:08:39;4.90;;;4.23;;
6336;SDS011;3201;49.962;11.618;2022-12-20T02:11:08;6.27;;;5.10;;
6336;SDS011;3201;49.962;11.618;2022-12-20T02:16:33;6.70;;;5.33;;
6336;SDS011;3201;49.962;11.618;2022-12-20T02:21:40;6.00;;;4.73;;
6336;SDS011;3201;49.962;11.618;2022-12-20T02:24:25;6.00;;;5.07;;
6336;SDS011;3201;49.962;11.618;2022-12-20T02:27:28;4.97;;;4.00;;
6336;SDS011;3201;49.962;11.618;2022-12-20T02:30:15;5.37;;;4.63;;
6336;SDS011;3201;49.962;11.618;2022-12-20T02:32:33;5.90;;;4.80;;
6336;SDS011;3201;49.962;11.618;2022-12-20T02:35:01;5.80;;;4.90;;
6336;SDS011;3201;49.962;11.618;2022-12-20T02:37:27;6.20;;;4.33;;
6336;SDS011;3201;49.962;11.618;2022-12-20T02:39:52;5.63;;;4.77;;
6336;SDS011;3201;49.962;11.618;2022-12-20T02:42:19;5.70;;;4.87;;
6336;SDS011;3201;49.962;11.618;2022-12-20T02:44:48;5.27;;;4.70;;
6336;SDS011;3201;49.962;11.618;2022-12-20T02:47:36;5.90;;;4.90;;
6336;SDS011;3201;49.962;11.618;2022-12-20T02:50:05;4.80;;;4.30;;
6336;SDS011;3201;49.962;11.618;2022-12-20T02:52:31;5.43;;;4.70;;
6336;SDS011;3201;49.962;11.618;2022-12-20T02:54:57;6.60;;;5.17;;
6336;SDS011;3201;49.962;11.618;2022-12-20T02:57:27;5.27;;;4.77;;
6336;SDS011;3201;49.962;11.618;2022-12-20T03:00:27;6.20;;;4.77;;
6336;SDS011;3201;49.962;11.618;2022-12-20T03:02:42;6.77;;;5.30;;
6336;SDS011;3201;49.962;11.618;2022-12-20T03:05:28;7.10;;;4.87;;
6336;SDS011;3201;49.962;11.618;2022-12-20T03:07:54;5.53;;;4.97;;
6336;SDS011;3201;49.962;11.618;2022-12-20T03:10:20;4.83;;;4.40;;
6336;SDS011;3201;49.962;11.618;2022-12-20T03:12:46;5.40;;;4.50;;
6336;SDS011;3201;49.962;11.618;2022-12-20T03:15:11;5.27;;;4.70;;
6336;SDS011;3201;49.962;11.618;2022-12-20T03:17:37;5.70;;;4.80;;
6336;SDS011;3201;49.962;11.618;2022-12-20T03:20:04;4.90;;;4.40;;
6336;SDS011;3201;49.962;11.618;2022-12-20T03:22:31;5.50;;;4.70;;
6336;SDS011;3201;49.962;11.618;2022-12-20T03:24:57;5.10;;;4.60;;
6336;SDS011;3201;49.962;11.618;2022-12-20T03:27:23;5.60;;;4.50;;
6336;SDS011;3201;49.962;11.618;2022-12-20T03:29:50;5.70;;;5.10;;
6336;SDS011;3201;49.962;11.618;2022-12-20T03:32:15;5.03;;;4.40;;
6336;SDS011;3201;49.962;11.618;2022-12-20T03:34:40;5.50;;;4.93;;
6336;SDS011;3201;49.962;11.618;2022-12-20T03:37:05;6.47;;;5.30;;
6336;SDS011;3201;49.962;11.618;2022-12-20T03:39:31;4.63;;;4.13;;
6336;SDS011;3201;49.962;11.618;2022-12-20T03:41:56;4.80;;;4.30;;
6336;SDS011;3201;49.962;11.618;2022-12-20T03:44:22;6.77;;;4.97;;
6336;SDS011;3201;49.962;11.618;2022-12-20T03:46:48;5.60;;;4.70;;
6336;SDS011;3201;49.962;11.618;2022-12-20T03:49:14;5.90;;;4.77;;
6336;SDS011;3201;49.962;11.618;2022-12-20T03:51:39;5.57;;;5.00;;
6336;SDS011;3201;49.962;11.618;2022-12-20T03:54:04;5.67;;;5.07;;
6336;SDS011;3201;49.962;11.618;2022-12-20T03:56:31;5.63;;;5.13;;
6336;SDS011;3201;49.962;11.618;2022-12-20T03:58:56;6.67;;;5.50;;
6336;SDS011;3201;49.962;11.618;2022-12-20T04:01:23;5.30;;;4.53;;
6336;SDS011;3201;49.962;11.618;2022-12-20T04:03:50;4.73;;;4.33;;
6336;SDS011;3201;49.962;11.618;2022-12-20T04:06:15;5.40;;;4.57;;
6336;SDS011;3201;49.962;11.618;2022-12-20T04:08:41;6.23;;;5.13;;
6336;SDS011;3201;49.962;11.618;2022-12-20T04:11:07;5.33;;;4.47;;
6336;SDS011;3201;49.962;11.618;2022-12-20T04:13:48;5.33;;;4.73;;
6336;SDS011;3201;49.962;11.618;2022-12-20T04:16:15;5.53;;;5.03;;
6336;SDS011;3201;49.962;11.618;2022-12-20T04:18:42;5.30;;;4.20;;
6336;SDS011;3201;49.962;11.618;2022-12-20T04:21:08;5.97;;;5.10;;
6336;SDS011;3201;49.962;11.618;2022-12-20T04:23:34;5.70;;;4.70;;
6336;SDS011;3201;49.962;11.618;2022-12-20T04:26:01;6.37;;;4.63;;
6336;SDS011;3201;49.962;11.618;2022-12-20T04:28:27;6.53;;;5.33;;
6336;SDS011;3201;49.962;11.618;2022-12-20T04:30:53;6.23;;;4.70;;
6336;SDS011;3201;49.962;11.618;2022-12-20T04:33:18;4.80;;;4.40;;
6336;SDS011;3201;49.962;11.618;2022-12-20T04:35:43;5.87;;;4.60;;
6336;SDS011;3201;49.962;11.618;2022-12-20T04:38:09;4.97;;;4.43;;
6336;SDS011;3201;49.962;11.618;2022-12-20T04:40:34;4.83;;;4.37;;
6336;SDS011;3201;49.962;11.618;2022-12-20T04:42:59;5.20;;;4.70;;
6336;SDS011;3201;49.962;11.618;2022-12-20T04:45:24;4.57;;;4.13;;
6336;SDS011;3201;49.962;11.618;2022-12-20T04:47:50;7.83;;;4.80;;
6336;SDS011;3201;49.962;11.618;2022-12-20T04:50:15;4.70;;;4.27;;
6336;SDS011;3201;49.962;11.618;2022-12-20T04:52:40;5.50;;;4.97;;
6336;SDS011;3201;49.962;11.618;2022-12-20T04:55:26;5.80;;;4.90;;
6336;SDS011;3201;49.962;11.618;2022-12-20T04:57:51;5.80;;;4.73;;
6336;SDS011;3201;49.962;11.618;2022-12-20T05:00:16;6.37;;;5.30;;
6336;SDS011;3201;49.962;11.618;2022-12-20T05:02:42;5.60;;;5.00;;
6336;SDS011;3201;49.962;11.618;2022-12-20T05:05:07;5.00;;;4.30;;
6336;SDS011;3201;49.962;11.618;2022-12-20T05:07:33;7.03;;;5.80;;
6336;SDS011;3201;49.962;11.618;2022-12-20T05:09:58;5.30;;;4.60;;
6336;SDS011;3201;49.962;11.618;2022-12-20T05:12:23;5.23;;;4.73;;
6336;SDS011;3201;49.962;11.618;2022-12-20T05:14:49;5.70;;;5.00;;
6336;SDS011;3201;49.962;11.618;2022-12-20T05:17:14;5.87;;;5.00;;
6336;SDS011;3201;49.962;11.618;2022-12-20T05:19:39;5.00;;;4.50;;
6336;SDS011;3201;49.962;11.618;2022-12-20T05:22:05;5.10;;;4.60;;
6336;SDS011;3201;49.962;11.618;2022-12-20T05:24:50;6.30;;;5.30;;
6336;SDS011;3201;49.962;11.618;2022-12-20T05:27:35;5.37;;;4.87;;
6336;SDS011;3201;49.962;11.618;2022-12-20T05:30:00;5.83;;;4.27;;
6336;SDS011;3201;49.962;11.618;2022-12-20T05:32:26;5.30;;;4.80;;
6336;SDS011;3201;49.962;11.618;2022-12-20T05:34:51;4.80;;;4.30;;
6336;SDS011;3201;49.962;11.618;2022-12-20T05:37:16;6.10;;;5.27;;
6336;SDS011;3201;49.962;11.618;2022-12-20T05:39:42;4.73;;;4.20;;
6336;SDS011;3201;49.962;11.618;2022-12-20T05:42:07;4.53;;;4.13;;
6336;SDS011;3201;49.962;11.618;2022-12-20T05:44:33;5.70;;;4.63;;
6336;SDS011;3201;49.962;11.618;2022-12-20T05:46:58;5.13;;;4.63;;
6336;SDS011;3201;49.962;11.618;2022-12-20T05:49:24;5.30;;;4.80;;
6336;SDS011;3201;49.962;11.618;2022-12-20T05:51:49;5.43;;;4.93;;
6336;SDS011;3201;49.962;11.618;2022-12-20T05:54:14;4.97;;;4.47;;
6336;SDS011;3201;49.962;11.618;2022-12-20T05:56:40;6.57;;;5.47;;
6336;SDS011;3201;49.962;11.618;2022-12-20T05:59:05;6.20;;;5.60;;
6336;SDS011;3201;49.962;11.618;2022-12-20T06:01:31;5.40;;;4.90;;
6336;SDS011;3201;49.962;11.618;2022-12-20T06:03:57;4.83;;;4.33;;
6336;SDS011;3201;49.962;11.618;2022-12-20T06:06:22;5.00;;;4.50;;
6336;SDS011;3201;49.962;11.618;2022-12-20T06:08:48;4.90;;;3.90;;
6336;SDS011;3201;49.962;11.618;2022-12-20T06:11:13;4.93;;;4.43;;
6336;SDS011;3201;49.962;11.618;2022-12-20T06:13:39;4.90;;;4.27;;
6336;SDS011;3201;49.962;11.618;2022-12-20T06:16:04;5.07;;;4.57;;
6336;SDS011;3201;49.962;11.618;2022-12-20T06:18:29;4.63;;;4.20;;
6336;SDS011;3201;49.962;11.618;2022-12-20T06:20:55;4.20;;;3.63;;
6336;SDS011;3201;49.962;11.618;2022-12-20T06:23:20;5.20;;;4.43;;
6336;SDS011;3201;49.962;11.618;2022-12-20T06:25:45;4.60;;;4.20;;
6336;SDS011;3201;49.962;11.618;2022-12-20T06:28:11;4.67;;;4.20;;
6336;SDS011;3201;49.962;11.618;2022-12-20T06:30:36;4.60;;;4.10;;
6336;SDS011;3201;49.962;11.618;2022-12-20T06:33:01;4.50;;;4.00;;
6336;SDS011;3201;49.962;11.618;2022-12-20T06:35:27;5.20;;;4.60;;
6336;SDS011;3201;49.962;11.618;2022-12-20T06:37:53;5.50;;;4.83;;
6336;SDS011;3201;49.962;11.618;2022-12-20T06:40:18;4.50;;;4.10;;
6336;SDS011;3201;49.962;11.618;2022-12-20T06:42:44;5.73;;;4.27;;
6336;SDS011;3201;49.962;11.618;2022-12-20T06:45:09;4.63;;;3.80;;
6336;SDS011;3201;49.962;11.618;2022-12-20T06:47:35;4.10;;;3.80;;
6336;SDS011;3201;49.962;11.618;2022-12-20T06:50:01;4.57;;;4.10;;
6336;SDS011;3201;49.962;11.618;2022-12-20T06:52:28;4.33;;;3.77;;
6336;SDS011;3201;49.962;11.618;2022-12-20T06:54:53;4.83;;;4.10;;
6336;SDS011;3201;49.962;11.618;2022-12-20T06:57:19;4.80;;;4.07;;
6336;SDS011;3201;49.962;11.618;2022-12-20T07:00:07;4.63;;;4.23;;
6336;SDS011;3201;49.962;11.618;2022-12-20T07:02:36;5.33;;;4.07;;
6336;SDS011;3201;49.962;11.618;2022-12-20T07:05:02;5.20;;;4.40;;
6336;SDS011;3201;49.962;11.618;2022-12-20T07:07:28;11.63;;;4.17;;
6336;SDS011;3201;49.962;11.618;2022-12-20T07:09:53;6.87;;;5.20;;
6336;SDS011;3201;49.962;11.618;2022-12-20T07:12:18;5.30;;;4.40;;
6336;SDS011;3201;49.962;11.618;2022-12-20T07:14:44;10.10;;;4.87;;
6336;SDS011;3201;49.962;11.618;2022-12-20T07:17:10;5.00;;;4.30;;
6336;SDS011;3201;49.962;11.618;2022-12-20T07:19:35;7.50;;;4.67;;
6336;SDS011;3201;49.962;11.618;2022-12-20T07:22:01;16.77;;;3.80;;
6336;SDS011;3201;49.962;11.618;2022-12-20T07:24:27;5.77;;;4.43;;
6336;SDS011;3201;49.962;11.618;2022-12-20T07:26:52;10.43;;;3.83;;
6336;SDS011;3201;49.962;11.618;2022-12-20T07:29:18;4.30;;;3.80;;
6336;SDS011;3201;49.962;11.618;2022-12-20T07:31:43;8.67;;;4.80;;
6336;SDS011;3201;49.962;11.618;2022-12-20T07:34:08;5.20;;;4.00;;
6336;SDS011;3201;49.962;11.618;2022-12-20T07:36:34;6.00;;;4.37;;
6336;SDS011;3201;49.962;11.618;2022-12-20T07:38:59;10.47;;;4.30;;
6336;SDS011;3201;49.962;11.618;2022-12-20T07:41:25;11.47;;;4.47;;
6336;SDS011;3201;49.962;11.618;2022-12-20T07:43:51;6.80;;;4.23;;
6336;SDS011;3201;49.962;11.618;2022-12-20T07:46:17;12.20;;;4.17;;
6336;SDS011;3201;49.962;11.618;2022-12-20T07:48:42;6.73;;;4.47;;
6336;SDS011;3201;49.962;11.618;2022-12-20T07:51:10;5.33;;;3.80;;
6336;SDS011;3201;49.962;11.618;2022-12-20T07:53:39;10.40;;;4.20;;
6336;SDS011;3201;49.962;11.618;2022-12-20T07:56:07;4.60;;;4.20;;
6336;SDS011;3201;49.962;11.618;2022-12-20T07:58:33;5.20;;;3.93;;
6336;SDS011;3201;49.962;11.618;2022-12-20T08:00:59;7.43;;;3.60;;
6336;SDS011;3201;49.962;11.618;2022-12-20T08:03:27;14.13;;;4.20;;
6336;SDS011;3201;49.962;11.618;2022-12-20T08:05:56;6.03;;;3.83;;
6336;SDS011;3201;49.962;11.618;2022-12-20T08:08:22;7.93;;;4.33;;
6336;SDS011;3201;49.962;11.618;2022-12-20T08:10:48;6.50;;;4.83;;
6336;SDS011;3201;49.962;11.618;2022-12-20T08:13:14;9.83;;;4.67;;
6336;SDS011;3201;49.962;11.618;2022-12-20T08:15:39;10.47;;;5.03;;
6336;SDS011;3201;49.962;11.618;2022-12-20T08:18:05;8.57;;;5.50;;
6336;SDS011;3201;49.962;11.618;2022-12-20T08:20:30;9.43;;;5.23;;
6336;SDS011;3201;49.962;11.618;2022-12-20T08:22:58;8.87;;;4.63;;
6336;SDS011;3201;49.962;11.618;2022-12-20T08:25:24;9.00;;;5.33;;
6336;SDS011;3201;49.962;11.618;2022-12-20T08:27:49;10.80;;;5.20;;
6336;SDS011;3201;49.962;11.618;2022-12-20T08:30:15;13.60;;;5.77;;
6336;SDS011;3201;49.962;11.618;2022-12-20T08:32:40;8.50;;;4.40;;
6336;SDS011;3201;49.962;11.618;2022-12-20T08:35:06;10.20;;;4.60;;
6336;SDS011;3201;49.962;11.618;2022-12-20T08:37:32;9.80;;;5.40;;
6336;SDS011;3201;49.962;11.618;2022-12-20T08:39:57;14.03;;;4.93;;
6336;SDS011;3201;49.962;11.618;2022-12-20T08:42:24;11.60;;;5.20;;
6336;SDS011;3201;49.962;11.618;2022-12-20T08:44:50;5.47;;;4.60;;
6336;SDS011;3201;49.962;11.618;2022-12-20T08:47:15;19.07;;;6.13;;
6336;SDS011;3201;49.962;11.618;2022-12-20T08:49:40;8.50;;;5.23;;
6336;SDS011;3201;49.962;11.618;2022-12-20T08:52:06;8.00;;;5.20;;
6336;SDS011;3201;49.962;11.618;2022-12-20T08:54:31;8.40;;;5.30;;
6336;SDS011;3201;49.962;11.618;2022-12-20T08:56:56;8.57;;;5.13;;
6336;SDS011;3201;49.962;11.618;2022-12-20T08:59:22;7.60;;;4.90;;
6336;SDS011;3201;49.962;11.618;2022-12-20T09:01:47;15.17;;;5.97;;
6336;SDS011;3201;49.962;11.618;2022-12-20T09:04:12;7.80;;;5.40;;
6336;SDS011;3201;49.962;11.618;2022-12-20T09:06:39;8.00;;;4.23;;
6336;SDS011;3201;49.962;11.618;2022-12-20T09:09:05;11.60;;;5.10;;
6336;SDS011;3201;49.962;11.618;2022-12-20T09:11:31;14.53;;;5.13;;
6336;SDS011;3201;49.962;11.618;2022-12-20T09:13:57;16.03;;;5.77;;
6336;SDS011;3201;49.962;11.618;2022-12-20T09:16:24;10.17;;;5.60;;
6336;SDS011;3201;49.962;11.618;2022-12-20T09:18:52;10.00;;;6.90;;
6336;SDS011;3201;49.962;11.618;2022-12-20T09:21:19;10.13;;;7.03;;
6336;SDS011;3201;49.962;11.618;2022-12-20T09:23:45;13.60;;;8.20;;
6336;SDS011;3201;49.962;11.618;2022-12-20T09:26:11;10.60;;;7.20;;
6336;SDS011;3201;49.962;11.618;2022-12-20T09:28:39;31.93;;;7.43;;
6336;SDS011;3201;49.962;11.618;2022-12-20T09:31:07;12.13;;;7.53;;
6336;SDS011;3201;49.962;11.618;2022-12-20T09:33:34;10.40;;;6.70;;
6336;SDS011;3201;49.962;11.618;2022-12-20T09:36:01;13.83;;;7.30;;
6336;SDS011;3201;49.962;11.618;2022-12-20T09:38:27;10.47;;;6.87;;
6336;SDS011;3201;49.962;11.618;2022-12-20T09:40:56;15.10;;;6.60;;
6336;SDS011;3201;49.962;11.618;2022-12-20T09:43:23;11.47;;;7.03;;
6336;SDS011;3201;49.962;11.618;2022-12-20T09:45:50;9.80;;;6.67;;
6336;SDS011;3201;49.962;11.618;2022-12-20T09:48:34;13.50;;;6.47;;
6336;SDS011;3201;49.962;11.618;2022-12-20T09:56:40;10.43;;;7.37;;
6336;SDS011;3201;49.962;11.618;2022-12-20T09:59:12;14.13;;;6.07;;
6336;SDS011;3201;49.962;11.618;2022-12-20T10:01:42;8.57;;;6.00;;
6336;SDS011;3201;49.962;11.618;2022-12-20T10:04:25;7.70;;;6.90;;
6336;SDS011;3201;49.962;11.618;2022-12-20T10:09:47;15.33;;;6.50;;
6336;SDS011;3201;49.962;11.618;2022-12-20T10:17:57;10.30;;;5.70;;
6336;SDS011;3201;49.962;11.618;2022-12-20T10:25:52;8.83;;;6.17;;
6336;SDS011;3201;49.962;11.618;2022-12-20T10:28:19;9.50;;;6.20;;
6336;SDS011;3201;49.962;11.618;2022-12-20T10:30:49;11.87;;;6.03;;
6336;SDS011;3201;49.962;11.618;2022-12-20T10:33:17;13.90;;;6.37;;
6336;SDS011;3201;49.962;11.618;2022-12-20T10:35:44;7.47;;;5.57;;
6336;SDS011;3201;49.962;11.618;2022-12-20T10:38:11;10.93;;;6.23;;
6336;SDS011;3201;49.962;11.618;2022-12-20T10:40:39;13.63;;;5.70;;
6336;SDS011;3201;49.962;11.618;2022-12-20T10:43:06;11.33;;;6.53;;
6336;SDS011;3201;49.962;11.618;2022-12-20T10:45:39;9.40;;;5.70;;
6336;SDS011;3201;49.962;11.618;2022-12-20T10:48:21;13.13;;;6.13;;
6336;SDS011;3201;49.962;11.618;2022-12-20T10:50:54;11.27;;;5.77;;
6336;SDS011;3201;49.962;11.618;2022-12-20T10:53:22;7.87;;;6.27;;
6336;SDS011;3201;49.962;11.618;2022-12-20T10:55:49;6.60;;;5.63;;
6336;SDS011;3201;49.962;11.618;2022-12-20T10:58:17;18.10;;;6.30;;
6336;SDS011;3201;49.962;11.618;2022-12-20T11:00:46;9.17;;;5.90;;
6336;SDS011;3201;49.962;11.618;2022-12-20T11:03:17;7.70;;;5.60;;
6336;SDS011;3201;49.962;11.618;2022-12-20T11:05:51;9.47;;;5.73;;
6336;SDS011;3201;49.962;11.618;2022-12-20T11:08:18;12.60;;;5.70;;
6336;SDS011;3201;49.962;11.618;2022-12-20T11:10:48;10.67;;;5.77;;
6336;SDS011;3201;49.962;11.618;2022-12-20T11:13:18;9.30;;;5.40;;
6336;SDS011;3201;49.962;11.618;2022-12-20T11:15:48;14.90;;;6.47;;
6336;SDS011;3201;49.962;11.618;2022-12-20T11:18:18;8.50;;;6.63;;
6336;SDS011;3201;49.962;11.618;2022-12-20T11:23:40;9.27;;;5.70;;
6336;SDS011;3201;49.962;11.618;2022-12-20T11:34:12;14.20;;;6.33;;
6336;SDS011;3201;49.962;11.618;2022-12-20T11:45:58;26.60;;;5.80;;
6336;SDS011;3201;49.962;11.618;2022-12-20T11:51:20;9.43;;;6.20;;
6336;SDS011;3201;49.962;11.618;2022-12-20T11:53:49;18.83;;;7.33;;
6336;SDS011;3201;49.962;11.618;2022-12-20T11:56:35;14.07;;;10.90;;
6336;SDS011;3201;49.962;11.618;2022-12-20T11:59:03;19.73;;;12.47;;
6336;SDS011;3201;49.962;11.618;2022-12-20T12:01:51;17.70;;;12.27;;
6336;SDS011;3201;49.962;11.618;2022-12-20T12:04:23;19.20;;;11.17;;
6336;SDS011;3201;49.962;11.618;2022-12-20T12:09:32;14.60;;;10.60;;
6336;SDS011;3201;49.962;11.618;2022-12-20T12:12:02;18.03;;;10.93;;
6336;SDS011;3201;49.962;11.618;2022-12-20T12:17:23;10.20;;;7.80;;
6336;SDS011;3201;49.962;11.618;2022-12-20T12:19:55;9.43;;;6.67;;
6336;SDS011;3201;49.962;11.618;2022-12-20T12:22:23;13.80;;;7.40;;
6336;SDS011;3201;49.962;11.618;2022-12-20T12:24:53;13.33;;;7.10;;
6336;SDS011;3201;49.962;11.618;2022-12-20T12:27:22;13.00;;;7.20;;
6336;SDS011;3201;49.962;11.618;2022-12-20T12:29:49;11.17;;;7.00;;
6336;SDS011;3201;49.962;11.618;2022-12-20T12:33:21;9.20;;;6.10;;
6336;SDS011;3201;49.962;11.618;2022-12-20T12:37:52;12.80;;;6.90;;
6336;SDS011;3201;49.962;11.618;2022-12-20T12:43:55;13.23;;;7.50;;
6336;SDS011;3201;49.962;11.618;2022-12-20T12:45:45;8.57;;;7.00;;
6336;SDS011;3201;49.962;11.618;2022-12-20T12:48:22;10.73;;;6.70;;
6336;SDS011;3201;49.962;11.618;2022-12-20T12:50:54;9.67;;;6.97;;
6336;SDS011;3201;49.962;11.618;2022-12-20T12:53:23;9.70;;;6.37;;
6336;SDS011;3201;49.962;11.618;2022-12-20T12:55:54;8.70;;;6.70;;
6336;SDS011;3201;49.962;11.618;2022-12-20T13:11:36;10.73;;;6.10;;
6336;SDS011;3201;49.962;11.618;2022-12-20T13:16:50;9.40;;;6.30;;
6336;SDS011;3201;49.962;11.618;2022-12-20T13:19:17;8.27;;;6.20;;
6336;SDS011;3201;49.962;11.618;2022-12-20T13:24:49;92.40;;;10.60;;
6336;SDS011;3201;49.962;11.618;2022-12-20T13:43:14;40.87;;;7.83;;
6336;SDS011;3201;49.962;11.618;2022-12-20T13:45:46;37.03;;;7.50;;
6336;SDS011;3201;49.962;11.618;2022-12-20T13:48:18;50.83;;;9.50;;
6336;SDS011;3201;49.962;11.618;2022-12-20T13:50:48;26.50;;;6.70;;
6336;SDS011;3201;49.962;11.618;2022-12-20T13:53:15;28.87;;;7.43;;
6336;SDS011;3201;49.962;11.618;2022-12-20T13:55:42;32.70;;;7.30;;
6336;SDS011;3201;49.962;11.618;2022-12-20T13:58:10;38.23;;;8.13;;
6336;SDS011;3201;49.962;11.618;2022-12-20T14:00:38;44.53;;;7.50;;
6336;SDS011;3201;49.962;11.618;2022-12-20T14:03:04;31.67;;;7.10;;
6336;SDS011;3201;49.962;11.618;2022-12-20T14:05:37;22.70;;;7.07;;
6336;SDS011;3201;49.962;11.618;2022-12-20T14:08:04;52.50;;;8.00;;
6336;SDS011;3201;49.962;11.618;2022-12-20T14:10:32;23.03;;;7.50;;
6336;SDS011;3201;49.962;11.618;2022-12-20T14:12:58;29.13;;;6.87;;
6336;SDS011;3201;49.962;11.618;2022-12-20T14:15:27;34.80;;;7.30;;
6336;SDS011;3201;49.962;11.618;2022-12-20T14:17:55;18.50;;;6.40;;
6336;SDS011;3201;49.962;11.618;2022-12-20T14:20:22;36.80;;;7.80;;
6336;SDS011;3201;49.962;11.618;2022-12-20T14:22:51;20.13;;;7.43;;
6336;SDS011;3201;49.962;11.618;2022-12-20T14:25:26;14.10;;;5.97;;
6336;SDS011;3201;49.962;11.618;2022-12-20T14:27:55;21.13;;;6.00;;
6336;SDS011;3201;49.962;11.618;2022-12-20T14:30:25;31.70;;;6.50;;
6336;SDS011;3201;49.962;11.618;2022-12-20T14:32:53;23.77;;;7.77;;
6336;SDS011;3201;49.962;11.618;2022-12-20T14:35:20;23.77;;;6.87;;
6336;SDS011;3201;49.962;11.618;2022-12-20T14:37:54;19.53;;;6.90;;
6336;SDS011;3201;49.962;11.618;2022-12-20T14:40:23;23.17;;;7.13;;
6336;SDS011;3201;49.962;11.618;2022-12-20T14:42:49;17.37;;;4.90;;
6336;SDS011;3201;49.962;11.618;2022-12-20T14:45:16;24.40;;;5.63;;
6336;SDS011;3201;49.962;11.618;2022-12-20T14:47:47;28.83;;;5.97;;
6336;SDS011;3201;49.962;11.618;2022-12-20T14:50:18;28.73;;;6.43;;
6336;SDS011;3201;49.962;11.618;2022-12-20T14:52:46;43.80;;;6.63;;
6336;SDS011;3201;49.962;11.618;2022-12-20T14:55:13;22.50;;;7.03;;
6336;SDS011;3201;49.962;11.618;2022-12-20T15:03:00;21.23;;;5.77;;
6336;SDS011;3201;49.962;11.618;2022-12-20T15:05:46;23.87;;;6.00;;
6336;SDS011;3201;49.962;11.618;2022-12-20T15:08:14;13.83;;;6.43;;
6336;SDS011;3201;49.962;11.618;2022-12-20T15:10:50;14.60;;;7.40;;
6336;SDS011;3201;49.962;11.618;2022-12-20T15:13:19;21.30;;;8.63;;
6336;SDS011;3201;49.962;11.618;2022-12-20T15:15:47;12.43;;;7.50;;
6336;SDS011;3201;49.962;11.618;2022-12-20T15:18:12;13.03;;;9.00;;
6336;SDS011;3201;49.962;11.618;2022-12-20T15:20:39;11.97;;;8.90;;
6336;SDS011;3201;49.962;11.618;2022-12-20T15:23:07;20.80;;;9.07;;
6336;SDS011;3201;49.962;11.618;2022-12-20T15:25:37;15.70;;;8.63;;
6336;SDS011;3201;49.962;11.618;2022-12-20T15:28:07;13.23;;;8.30;;
6336;SDS011;3201;49.962;11.618;2022-12-20T15:30:36;16.00;;;9.20;;
6336;SDS011;3201;49.962;11.618;2022-12-20T15:33:01;18.30;;;10.03;;
6336;SDS011;3201;49.962;11.618;2022-12-20T15:35:27;14.43;;;9.90;;
6336;SDS011;3201;49.962;11.618;2022-12-20T15:37:53;15.07;;;9.70;;
6336;SDS011;3201;49.962;11.618;2022-12-20T15:40:18;16.10;;;8.90;;
6336;SDS011;3201;49.962;11.618;2022-12-20T15:42:44;19.90;;;8.23;;
6336;SDS011;3201;49.962;11.618;2022-12-20T15:45:12;11.87;;;8.20;;
6336;SDS011;3201;49.962;11.618;2022-12-20T15:47:38;15.90;;;7.50;;
6336;SDS011;3201;49.962;11.618;2022-12-20T15:50:04;17.57;;;6.80;;
6336;SDS011;3201;49.962;11.618;2022-12-20T15:52:30;9.93;;;7.17;;
6336;SDS011;3201;49.962;11.618;2022-12-20T15:54:55;10.60;;;6.70;;
6336;SDS011;3201;49.962;11.618;2022-12-20T15:57:20;16.07;;;6.53;;
6336;SDS011;3201;49.962;11.618;2022-12-20T15:59:46;12.93;;;6.50;;
6336;SDS011;3201;49.962;11.618;2022-12-20T16:04:46;15.30;;;6.57;;
6336;SDS011;3201;49.962;11.618;2022-12-20T16:07:12;17.57;;;6.67;;
6336;SDS011;3201;49.962;11.618;2022-12-20T16:09:37;16.00;;;6.70;;
6336;SDS011;3201;49.962;11.618;2022-12-20T16:12:03;11.93;;;6.03;;
6336;SDS011;3201;49.962;11.618;2022-12-20T16:14:33;15.13;;;6.60;;
6336;SDS011;3201;49.962;11.618;2022-12-20T16:16:58;17.67;;;6.80;;
6336;SDS011;3201;49.962;11.618;2022-12-20T16:19:23;13.37;;;5.70;;
6336;SDS011;3201;49.962;11.618;2022-12-20T16:21:50;10.47;;;6.43;;
6336;SDS011;3201;49.962;11.618;2022-12-20T16:24:17;14.33;;;6.20;;
6336;SDS011;3201;49.962;11.618;2022-12-20T16:26:43;11.83;;;6.17;;
6336;SDS011;3201;49.962;11.618;2022-12-20T16:29:09;8.90;;;5.43;;
6336;SDS011;3201;49.962;11.618;2022-12-20T16:31:35;10.83;;;6.30;;
6336;SDS011;3201;49.962;11.618;2022-12-20T16:34:03;7.30;;;5.33;;
6336;SDS011;3201;49.962;11.618;2022-12-20T16:36:30;12.20;;;6.13;;
6336;SDS011;3201;49.962;11.618;2022-12-20T16:38:55;14.23;;;5.87;;
6336;SDS011;3201;49.962;11.618;2022-12-20T16:41:26;7.00;;;5.07;;